createdAt,value
2018-09-02T00:02:26.991Z,97952.25
2018-09-02T00:04:55.550Z,97946.47
2018-09-02T00:07:24.224Z,97945.55
2018-09-02T00:09:52.780Z,97949.23
2018-09-02T00:12:21.372Z,97945.72
2018-09-02T00:14:50.180Z,97944.62
2018-09-02T00:17:18.723Z,97942.81
2018-09-02T00:19:47.299Z,97939.86
2018-09-02T00:22:15.887Z,97933.80
2018-09-02T00:24:44.512Z,97928.86
2018-09-02T00:27:13.080Z,97929.39
2018-09-02T00:29:41.735Z,97929.12
2018-09-02T00:32:10.309Z,97926.63
2018-09-02T00:34:38.854Z,97923.52
2018-09-02T00:37:07.550Z,97922.24
2018-09-02T00:39:36.112Z,97919.61
2018-09-02T00:42:04.655Z,97926.52
2018-09-02T00:44:33.311Z,97922.67
2018-09-02T00:47:01.939Z,97919.34
2018-09-02T00:49:30.476Z,97922.56
2018-09-02T00:51:59.068Z,97921.98
2018-09-02T00:54:27.615Z,97918.05
2018-09-02T00:56:56.215Z,97917.98
2018-09-02T00:59:24.787Z,97911.30
2018-09-02T01:01:53.331Z,97909.07
2018-09-02T01:04:21.887Z,97910.92
2018-09-02T01:06:50.487Z,97908.09
2018-09-02T01:09:19.030Z,97909.83
2018-09-02T01:11:47.576Z,97913.48
2018-09-02T01:14:16.289Z,97908.80
2018-09-02T01:16:44.886Z,97911.75
2018-09-02T01:19:13.438Z,97908.34
2018-09-02T01:21:42.091Z,97908.23
2018-09-02T01:24:10.683Z,97912.20
2018-09-02T01:26:39.249Z,97906.61
2018-09-02T01:29:08.002Z,97908.09
2018-09-02T01:31:36.612Z,97905.52
2018-09-02T01:34:05.596Z,97903.33
2018-09-02T01:36:34.187Z,97900.12
2018-09-02T01:39:03.017Z,97903.81
2018-09-02T01:41:31.576Z,97901.97
2018-09-02T01:44:00.264Z,97900.98
2018-09-02T01:46:28.814Z,97896.22
2018-09-02T01:48:57.367Z,97902.74
2018-09-02T01:51:26.032Z,97893.45
2018-09-02T01:53:54.593Z,97892.09
2018-09-02T01:56:23.351Z,97883.85
2018-09-02T01:58:51.939Z,97891.64
2018-09-02T02:01:20.503Z,97890.27
2018-09-02T02:03:49.164Z,97887.15
2018-09-02T02:06:17.863Z,97885.11
2018-09-02T02:08:46.411Z,97883.75
2018-09-02T02:11:14.982Z,97882.63
2018-09-02T02:13:43.663Z,97877.97
2018-09-02T02:16:12.447Z,97880.44
2018-09-02T02:18:41.007Z,97873.38
2018-09-02T02:21:09.588Z,97867.48
2018-09-02T02:23:38.139Z,97868.05
2018-09-02T02:26:06.715Z,97868.77
2018-09-02T02:28:35.292Z,97860.79
2018-09-02T02:31:03.859Z,97862.08
2018-09-02T02:33:32.432Z,97861.63
2018-09-02T02:36:01.115Z,97862.08
2018-09-02T02:38:29.679Z,97863.17
2018-09-02T02:40:58.804Z,97859.58
2018-09-02T02:43:27.379Z,97858.22
2018-09-02T02:45:55.943Z,97858.83
2018-09-02T02:48:24.491Z,97853.61
2018-09-02T02:50:53.083Z,97856.37
2018-09-02T02:53:21.654Z,97848.02
2018-09-02T02:55:50.217Z,97844.55
2018-09-02T02:58:19.084Z,97837.98
2018-09-02T03:00:47.655Z,97836.44
2018-09-02T03:03:16.199Z,97841.11
2018-09-02T03:05:44.895Z,97836.99
2018-09-02T03:08:13.477Z,97830.31
2018-09-02T03:10:42.043Z,97835.26
2018-09-02T03:13:11.037Z,97830.92
2018-09-02T03:15:39.642Z,97830.77
2018-09-02T03:18:08.199Z,97829.74
2018-09-02T03:20:36.876Z,97828.35
2018-09-02T03:23:05.475Z,97822.60
2018-09-02T03:25:34.039Z,97824.42
2018-09-02T03:28:02.723Z,97822.41
2018-09-02T03:30:31.475Z,97826.55
2018-09-02T03:33:00.065Z,97821.23
2018-09-02T03:35:28.735Z,97822.25
2018-09-02T03:37:57.331Z,97826.28
2018-09-02T03:40:26.048Z,97822.59
2018-09-02T03:42:54.735Z,97809.50
2018-09-02T03:45:23.292Z,97815.92
2018-09-02T03:47:51.844Z,97808.41
2018-09-02T03:50:20.447Z,97817.02
2018-09-02T03:52:49.056Z,97813.14
2018-09-02T03:55:17.681Z,97816.53
2018-09-02T03:57:46.368Z,97817.82
2018-09-02T04:00:14.933Z,97816.72
2018-09-02T04:02:43.494Z,97809.20
2018-09-02T04:05:12.196Z,97817.44
2018-09-02T04:07:40.776Z,97817.28
2018-09-02T04:10:09.375Z,97816.53
2018-09-02T04:12:38.052Z,97814.42
2018-09-02T04:15:07.379Z,97811.44
2018-09-02T04:17:35.944Z,97809.13
2018-09-02T04:20:04.899Z,97806.34
2018-09-02T04:22:33.475Z,97809.47
2018-09-02T04:25:02.043Z,97805.73
2018-09-02T04:27:30.792Z,97804.91
2018-09-02T04:29:59.354Z,97807.36
2018-09-02T04:32:27.915Z,97812.60
2018-09-02T04:34:56.923Z,97808.56
2018-09-02T04:37:25.507Z,97806.75
2018-09-02T04:39:54.135Z,97801.80
2018-09-02T04:42:23.059Z,97801.80
2018-09-02T04:44:51.607Z,97802.45
2018-09-02T04:47:20.161Z,97797.02
2018-09-02T04:49:48.831Z,97799.50
2018-09-02T04:52:17.399Z,97801.42
2018-09-02T04:54:45.959Z,97796.66
2018-09-02T04:57:14.891Z,97793.09
2018-09-02T04:59:43.444Z,97788.88
2018-09-02T05:02:12.040Z,97790.89
2018-09-02T05:04:41.063Z,97800.52
2018-09-02T05:07:09.608Z,97797.76
2018-09-02T05:09:38.163Z,97796.69
2018-09-02T05:12:07.223Z,97798.97
2018-09-02T05:14:35.775Z,97793.83
2018-09-02T05:17:04.586Z,97795.95
2018-09-02T05:19:33.249Z,97797.87
2018-09-02T05:22:01.874Z,97791.09
2018-09-02T05:24:30.427Z,97792.94
2018-09-02T05:26:59.023Z,97793.11
2018-09-02T05:29:27.722Z,97793.57
2018-09-02T05:31:56.275Z,97796.75
2018-09-02T05:34:24.953Z,97794.47
2018-09-02T05:36:53.584Z,97804.13
2018-09-02T05:39:22.139Z,97799.31
2018-09-02T05:41:51.156Z,97805.07
2018-09-02T05:44:19.715Z,97802.95
2018-09-02T05:46:48.280Z,97805.94
2018-09-02T05:49:17.193Z,97810.22
2018-09-02T05:51:45.752Z,97807.45
2018-09-02T05:54:14.487Z,97806.73
2018-09-02T05:56:43.398Z,97807.77
2018-09-02T05:59:12.009Z,97811.67
2018-09-02T06:01:40.579Z,97812.57
2018-09-02T06:04:09.166Z,97816.58
2018-09-02T06:06:37.743Z,97812.30
2018-09-02T06:09:07.879Z,97815.34
2018-09-02T06:11:36.663Z,97809.43
2018-09-02T06:14:05.799Z,97808.70
2018-09-02T06:16:34.380Z,97807.91
2018-09-02T06:19:03.054Z,97811.58
2018-09-02T06:21:31.608Z,97810.12
2018-09-02T06:24:00.231Z,97811.23
2018-09-02T06:26:29.083Z,97816.70
2018-09-02T06:28:57.641Z,97814.66
2018-09-02T06:31:26.213Z,97812.55
2018-09-02T06:33:59.956Z,97814.83
2018-09-02T06:36:33.364Z,97819.75
2018-09-02T06:39:07.350Z,97822.20
2018-09-02T06:41:38.977Z,97818.73
2018-09-02T06:44:12.941Z,97816.62
2018-09-02T06:46:43.405Z,97815.00
2018-09-02T06:49:14.528Z,97816.39
2018-09-02T06:51:44.919Z,97819.95
2018-09-02T06:54:13.699Z,97819.67
2018-09-02T06:56:47.354Z,97827.36
2018-09-02T06:59:20.991Z,97814.00
2018-09-02T07:01:53.593Z,97821.52
2018-09-02T07:04:25.317Z,97819.27
2018-09-02T07:06:57.237Z,97811.03
2018-09-02T07:09:29.817Z,97810.16
2018-09-02T07:12:03.178Z,97812.27
2018-09-02T07:14:33.821Z,97814.33
2018-09-02T07:17:07.190Z,97813.77
2018-09-02T07:19:37.652Z,97811.05
2018-09-02T07:22:07.472Z,97811.16
2018-09-02T07:24:36.703Z,97815.73
2018-09-02T07:27:07.124Z,97815.01
2018-09-02T07:29:39.099Z,97811.14
2018-09-02T07:32:07.668Z,97812.80
2018-09-02T07:34:39.828Z,97815.82
2018-09-02T07:37:09.723Z,97820.00
2018-09-02T07:39:43.391Z,97816.65
2018-09-02T07:42:13.359Z,97814.25
2018-09-02T07:44:43.080Z,97817.58
2018-09-02T07:47:12.327Z,97813.53
2018-09-02T07:49:41.886Z,97817.28
2018-09-02T07:52:11.891Z,97821.15
2018-09-02T07:54:41.810Z,97816.56
2018-09-02T07:57:12.370Z,97816.45
2018-09-02T07:59:41.831Z,97811.69
2018-09-02T08:02:11.796Z,97813.25
2018-09-02T08:04:40.754Z,97816.55
2018-09-02T08:07:10.442Z,97821.58
2018-09-02T08:09:40.260Z,97824.30
2018-09-02T08:12:11.714Z,97822.62
2018-09-02T08:14:41.287Z,97825.00
2018-09-02T08:17:11.858Z,97825.91
2018-09-02T08:19:40.603Z,97829.81
2018-09-02T08:22:09.172Z,97827.30
2018-09-02T08:24:42.855Z,97837.58
2018-09-02T08:27:16.088Z,97831.62
2018-09-02T08:29:48.816Z,97831.34
2018-09-02T08:32:19.816Z,97830.31
2018-09-02T08:34:53.910Z,97832.42
2018-09-02T08:37:28.441Z,97831.34
2018-09-02T08:40:01.151Z,97825.66
2018-09-02T08:42:33.072Z,97831.44
2018-09-02T08:45:05.326Z,97825.18
2018-09-02T08:47:38.918Z,97820.19
2018-09-02T08:50:13.267Z,97820.01
2018-09-02T08:52:46.967Z,97822.31
2018-09-02T08:55:23.445Z,97815.34
2018-09-02T08:57:57.269Z,97816.16
2018-09-02T09:00:31.829Z,97815.91
2018-09-02T09:03:04.744Z,97828.09
2018-09-02T09:05:33.508Z,97818.94
2018-09-02T09:08:06.438Z,97824.45
2018-09-02T09:10:35.947Z,97822.70
2018-09-02T09:13:06.679Z,97817.20
2018-09-02T09:15:40.095Z,97822.25
2018-09-02T09:18:10.947Z,97821.15
2018-09-02T09:20:44.215Z,97827.66
2018-09-02T09:23:17.500Z,97823.17
2018-09-02T09:25:49.013Z,97825.81
2018-09-02T09:28:21.550Z,97821.96
2018-09-02T09:30:55.251Z,97820.58
2018-09-02T09:33:28.219Z,97821.31
2018-09-02T09:35:59.619Z,97816.82
2018-09-02T09:38:32.766Z,97815.74
2018-09-02T09:41:05.191Z,97815.47
2018-09-02T09:43:36.976Z,97816.27
2018-09-02T09:46:09.759Z,97810.98
2018-09-02T09:48:44.635Z,97809.70
2018-09-02T09:51:14.853Z,97805.20
2018-09-02T09:53:43.876Z,97809.42
2018-09-02T09:56:12.432Z,97802.45
2018-09-02T09:58:44.871Z,97803.17
2018-09-02T10:01:13.479Z,97805.48
2018-09-02T10:03:42.207Z,97803.91
2018-09-02T10:06:10.788Z,97801.36
2018-09-02T10:08:39.350Z,97798.60
2018-09-02T10:11:07.992Z,97802.53
2018-09-02T10:13:36.795Z,97798.23
2018-09-02T10:16:05.401Z,97799.62
2018-09-02T10:18:34.107Z,97787.78
2018-09-02T10:21:03.175Z,97787.98
2018-09-02T10:23:31.977Z,97790.89
2018-09-02T10:26:01.007Z,97790.44
2018-09-02T10:28:29.643Z,97787.23
2018-09-02T10:30:58.195Z,97799.04
2018-09-02T10:33:26.836Z,97789.18
2018-09-02T10:35:55.803Z,97786.88
2018-09-02T10:38:24.386Z,97784.31
2018-09-02T10:40:52.952Z,97781.29
2018-09-02T10:43:21.631Z,97776.70
2018-09-02T10:45:50.219Z,97780.44
2018-09-02T10:48:18.780Z,97775.31
2018-09-02T10:50:47.383Z,97784.13
2018-09-02T10:53:15.935Z,97777.61
2018-09-02T10:55:44.512Z,97781.75
2018-09-02T10:58:13.199Z,97771.38
2018-09-02T11:00:41.764Z,97770.18
2018-09-02T11:03:10.327Z,97767.53
2018-09-02T11:05:38.923Z,97762.86
2018-09-02T11:08:07.494Z,97763.34
2018-09-02T11:10:36.055Z,97766.36
2018-09-02T11:13:04.790Z,97762.31
2018-09-02T11:15:33.391Z,97756.17
2018-09-02T11:18:02.036Z,97754.06
2018-09-02T11:20:30.713Z,97749.65
2018-09-02T11:22:59.272Z,97744.97
2018-09-02T11:25:27.831Z,97754.17
2018-09-02T11:27:56.427Z,97747.41
2018-09-02T11:30:25.011Z,97751.61
2018-09-02T11:32:53.656Z,97755.55
2018-09-02T11:35:22.302Z,97756.11
2018-09-02T11:37:50.856Z,97754.45
2018-09-02T11:40:19.413Z,97749.97
2018-09-02T11:42:47.997Z,97750.25
2018-09-02T11:45:16.647Z,97754.45
2018-09-02T11:47:45.564Z,97753.81
2018-09-02T11:50:14.230Z,97749.03
2018-09-02T11:52:42.788Z,97749.97
2018-09-02T11:55:11.352Z,97751.23
2018-09-02T11:57:40.150Z,97744.94
2018-09-02T12:00:08.807Z,97742.92
2018-09-02T12:02:37.375Z,97744.37
2018-09-02T12:05:06.027Z,97744.20
2018-09-02T12:07:35.180Z,97746.58
2018-09-02T12:10:03.827Z,97742.11
2018-09-02T12:12:32.420Z,97736.42
2018-09-02T12:15:01.021Z,97745.30
2018-09-02T12:17:29.589Z,97744.75
2018-09-02T12:19:58.171Z,97746.02
2018-09-02T12:22:26.719Z,97739.72
2018-09-02T12:24:55.271Z,97733.75
2018-09-02T12:27:23.951Z,97735.69
2018-09-02T12:29:52.510Z,97742.63
2018-09-02T12:32:21.052Z,97745.13
2018-09-02T12:34:49.745Z,97746.59
2018-09-02T12:37:18.391Z,97743.92
2018-09-02T12:39:46.940Z,97739.62
2018-09-02T12:42:15.621Z,97748.14
2018-09-02T12:44:44.167Z,97741.01
2018-09-02T12:47:12.744Z,97747.87
2018-09-02T12:49:41.331Z,97738.63
2018-09-02T12:52:09.895Z,97740.81
2018-09-02T12:54:38.439Z,97737.04
2018-09-02T12:57:07.019Z,97737.37
2018-09-02T12:59:35.572Z,97727.72
2018-09-02T13:02:04.143Z,97730.96
2018-09-02T13:04:32.827Z,97728.69
2018-09-02T13:07:01.387Z,97728.61
2018-09-02T13:09:29.985Z,97727.80
2018-09-02T13:11:58.632Z,97729.00
2018-09-02T13:14:27.195Z,97725.14
2018-09-02T13:16:56.683Z,97722.59
2018-09-02T13:19:25.425Z,97725.53
2018-09-02T13:21:54.011Z,97718.02
2018-09-02T13:24:22.572Z,97719.09
2018-09-02T13:26:51.379Z,97720.48
2018-09-02T13:29:20.019Z,97721.58
2018-09-02T13:31:48.711Z,97719.09
2018-09-02T13:34:17.548Z,97721.58
2018-09-02T13:36:46.191Z,97719.73
2018-09-02T13:39:14.751Z,97724.49
2018-09-02T13:41:43.404Z,97718.27
2018-09-02T13:44:12.009Z,97720.95
2018-09-02T13:46:40.559Z,97721.48
2018-09-02T13:49:09.139Z,97721.22
2018-09-02T13:51:37.784Z,97720.20
2018-09-02T13:54:06.284Z,97715.17
2018-09-02T13:56:34.876Z,97721.31
2018-09-02T13:59:03.436Z,97720.20
2018-09-02T14:01:31.995Z,97720.20
2018-09-02T14:04:00.611Z,97714.42
2018-09-02T14:06:29.203Z,97712.44
2018-09-02T14:08:57.775Z,97710.52
2018-09-02T14:11:26.396Z,97714.89
2018-09-02T14:13:54.966Z,97707.20
2018-09-02T14:16:23.524Z,97705.75
2018-09-02T14:18:52.212Z,97700.42
2018-09-02T14:21:20.831Z,97700.80
2018-09-02T14:23:49.404Z,97693.47
2018-09-02T14:26:19.250Z,97695.19
2018-09-02T14:28:47.814Z,97694.84
2018-09-02T14:31:16.395Z,97696.47
2018-09-02T14:33:45.011Z,97698.13
2018-09-02T14:36:13.607Z,97703.06
2018-09-02T14:38:42.171Z,97698.70
2018-09-02T14:41:11.056Z,97691.55
2018-09-02T14:43:39.619Z,97689.17
2018-09-02T14:46:08.799Z,97698.06
2018-09-02T14:48:37.884Z,97690.72
2018-09-02T14:51:06.499Z,97695.10
2018-09-02T14:53:35.057Z,97696.47
2018-09-02T14:56:03.760Z,97692.17
2018-09-02T14:58:32.399Z,97690.91
2018-09-02T15:01:01.044Z,97688.06
2018-09-02T15:03:29.714Z,97680.89
2018-09-02T15:05:58.287Z,97688.51
2018-09-02T15:08:26.855Z,97682.13
2018-09-02T15:10:55.559Z,97691.91
2018-09-02T15:13:24.199Z,97693.11
2018-09-02T15:15:52.795Z,97688.69
2018-09-02T15:18:21.672Z,97687.52
2018-09-02T15:20:50.227Z,97687.06
2018-09-02T15:23:18.792Z,97682.02
2018-09-02T15:25:47.395Z,97681.56
2018-09-02T15:28:15.980Z,97678.81
2018-09-02T15:30:44.643Z,97680.76
2018-09-02T15:33:13.339Z,97674.98
2018-09-02T15:35:41.903Z,97677.53
2018-09-02T15:38:10.737Z,97673.93
2018-09-02T15:40:39.411Z,97677.41
2018-09-02T15:43:08.079Z,97674.94
2018-09-02T15:45:36.637Z,97673.30
2018-09-02T15:48:05.583Z,97673.75
2018-09-02T15:50:34.217Z,97674.68
2018-09-02T15:53:03.126Z,97671.17
2018-09-02T15:55:32.330Z,97672.09
2018-09-02T15:58:01.462Z,97675.75
2018-09-02T16:00:30.519Z,97674.47
2018-09-02T16:02:59.612Z,97672.36
2018-09-02T16:05:28.652Z,97672.09
2018-09-02T16:07:57.744Z,97670.34
2018-09-02T16:10:26.841Z,97671.27
2018-09-02T16:12:55.939Z,97677.06
2018-09-02T16:15:24.959Z,97671.83
2018-09-02T16:17:54.052Z,97672.66
2018-09-02T16:20:22.625Z,97668.19
2018-09-02T16:22:51.187Z,97667.81
2018-09-02T16:25:19.843Z,97664.61
2018-09-02T16:27:48.387Z,97662.88
2018-09-02T16:30:17.144Z,97658.48
2018-09-02T16:32:45.811Z,97663.77
2018-09-02T16:35:14.379Z,97661.69
2018-09-02T16:37:43.024Z,97658.55
2018-09-02T16:40:11.678Z,97650.33
2018-09-02T16:42:40.319Z,97647.31
2018-09-02T16:45:08.983Z,97652.78
2018-09-02T16:47:37.665Z,97654.89
2018-09-02T16:50:06.915Z,97658.83
2018-09-02T16:52:35.483Z,97656.09
2018-09-02T16:55:04.199Z,97653.36
2018-09-02T16:57:32.759Z,97653.63
2018-09-02T17:00:01.316Z,97654.73
2018-09-02T17:02:29.904Z,97647.03
2018-09-02T17:05:02.295Z,97649.77
2018-09-02T17:07:31.428Z,97648.13
2018-09-02T17:10:00.076Z,97646.66
2018-09-02T17:12:28.720Z,97640.26
2018-09-02T17:14:57.528Z,97643.92
2018-09-02T17:17:26.163Z,97643.39
2018-09-02T17:19:56.931Z,97643.48
2018-09-02T17:22:25.523Z,97651.78
2018-09-02T17:24:54.149Z,97642.17
2018-09-02T17:27:22.839Z,97639.88
2018-09-02T17:29:51.400Z,97643.81
2018-09-02T17:32:21.528Z,97637.55
2018-09-02T17:34:50.143Z,97641.92
2018-09-02T17:37:18.739Z,97640.45
2018-09-02T17:39:47.307Z,97631.66
2018-09-02T17:42:16.249Z,97631.66
2018-09-02T17:44:44.804Z,97624.98
2018-09-02T17:47:13.375Z,97623.52
2018-09-02T17:49:41.976Z,97628.77
2018-09-02T17:52:10.540Z,97621.76
2018-09-02T17:54:39.177Z,97624.24
2018-09-02T17:57:08.255Z,97625.64
2018-09-02T17:59:36.814Z,97625.00
2018-09-02T18:02:05.566Z,97624.81
2018-09-02T18:04:34.168Z,97631.21
2018-09-02T18:07:02.783Z,97630.37
2018-09-02T18:09:31.351Z,97635.63
2018-09-02T18:12:00.171Z,97637.17
2018-09-02T18:14:28.733Z,97644.03
2018-09-02T18:16:57.290Z,97637.87
2018-09-02T18:19:25.888Z,97634.51
2018-09-02T18:21:54.463Z,97635.13
2018-09-02T18:24:23.027Z,97640.71
2018-09-02T18:26:51.987Z,97634.59
2018-09-02T18:29:20.552Z,97637.80
2018-09-02T18:31:49.128Z,97642.55
2018-09-02T18:34:17.720Z,97644.66
2018-09-02T18:36:46.364Z,97640.91
2018-09-02T18:39:15.010Z,97646.05
2018-09-02T18:41:43.573Z,97640.36
2018-09-02T18:44:12.140Z,97647.75
2018-09-02T18:46:40.791Z,97642.75
2018-09-02T18:49:10.007Z,97643.81
2018-09-02T18:51:38.600Z,97644.55
2018-09-02T18:54:07.215Z,97645.56
2018-09-02T18:56:35.776Z,97646.40
2018-09-02T18:59:05.707Z,97651.50
2018-09-02T19:01:34.255Z,97646.77
2018-09-02T19:04:02.936Z,97652.80
2018-09-02T19:06:31.760Z,97651.06
2018-09-02T19:09:00.316Z,97650.31
2018-09-02T19:11:28.996Z,97652.17
2018-09-02T19:13:57.564Z,97651.23
2018-09-02T19:16:26.127Z,97657.11
2018-09-02T19:18:54.860Z,97654.17
2018-09-02T19:21:23.432Z,97652.36
2018-09-02T19:23:52.019Z,97654.02
2018-09-02T19:26:20.696Z,97657.02
2018-09-02T19:28:49.264Z,97659.66
2018-09-02T19:31:17.836Z,97654.08
2018-09-02T19:33:46.495Z,97653.52
2018-09-02T19:36:15.052Z,97661.41
2018-09-02T19:38:43.763Z,97657.02
2018-09-02T19:41:12.359Z,97653.87
2018-09-02T19:43:40.916Z,97649.12
2018-09-02T19:46:09.483Z,97644.64
2018-09-02T19:48:38.431Z,97641.38
2018-09-02T19:51:07.330Z,97642.00
2018-09-02T19:53:36.541Z,97639.09
2018-09-02T19:56:05.403Z,97635.69
2018-09-02T19:58:33.968Z,97624.16
2018-09-02T20:01:02.555Z,97631.84
2018-09-02T20:03:31.303Z,97626.17
2018-09-02T20:06:00.132Z,97626.92
2018-09-02T20:08:28.688Z,97618.57
2018-09-02T20:10:57.296Z,97617.09
2018-09-02T20:13:25.863Z,97613.54
2018-09-02T20:15:54.419Z,97609.97
2018-09-02T20:18:23.143Z,97610.34
2018-09-02T20:20:51.766Z,97611.27
2018-09-02T20:23:20.342Z,97607.68
2018-09-02T20:25:49.283Z,97605.05
2018-09-02T20:28:17.876Z,97610.63
2018-09-02T20:31:07.412Z,97613.91
2018-09-02T20:33:56.143Z,97609.34
2018-09-02T20:36:47.226Z,97605.41
2018-09-02T20:42:30.104Z,97610.90
2018-09-02T20:45:14.656Z,97605.77
2018-09-02T20:47:43.789Z,97607.34
2018-09-02T20:50:12.346Z,97606.05
2018-09-02T20:52:41.020Z,97604.29
2018-09-02T20:55:09.627Z,97592.23
2018-09-02T20:57:38.288Z,97600.08
2018-09-02T21:00:07.525Z,97598.19
2018-09-02T21:02:36.400Z,97597.70
2018-09-02T21:05:05.059Z,97603.84
2018-09-02T21:07:33.637Z,97601.10
2018-09-02T21:10:02.335Z,97603.22
2018-09-02T21:12:30.916Z,97600.63
2018-09-02T21:14:59.534Z,97596.44
2018-09-02T21:17:28.418Z,97595.61
2018-09-02T21:19:56.983Z,97591.69
2018-09-02T21:22:25.543Z,97596.52
2018-09-02T21:24:54.251Z,97600.38
2018-09-02T21:27:22.822Z,97590.77
2018-09-02T21:29:51.388Z,97594.26
2018-09-02T21:32:20.175Z,97590.59
2018-09-02T21:34:48.734Z,97586.47
2018-09-02T21:37:17.336Z,97584.36
2018-09-02T21:39:46.670Z,97588.55
2018-09-02T21:42:15.251Z,97588.65
2018-09-02T21:44:43.959Z,97586.20
2018-09-02T21:47:12.556Z,97587.48
2018-09-02T21:49:41.124Z,97585.72
2018-09-02T21:52:09.724Z,97589.31
2018-09-02T21:54:38.307Z,97586.55
2018-09-02T21:57:06.879Z,97586.84
2018-09-02T21:59:35.868Z,97587.11
2018-09-02T22:02:04.563Z,97583.73
2018-09-02T22:04:33.701Z,97582.34
2018-09-02T22:07:02.292Z,97582.72
2018-09-02T22:09:30.879Z,97589.39
2018-09-02T22:11:59.448Z,97583.97
2018-09-02T22:14:28.036Z,97584.00
2018-09-02T22:16:56.635Z,97580.07
2018-09-02T22:19:25.219Z,97584.00
2018-09-02T22:21:53.799Z,97583.61
2018-09-02T22:24:22.656Z,97580.42
2018-09-02T22:26:51.242Z,97576.41
2018-09-02T22:29:19.880Z,97583.16
2018-09-02T22:31:48.540Z,97573.20
2018-09-02T22:34:17.314Z,97573.56
2018-09-02T22:36:45.883Z,97567.69
2018-09-02T22:39:14.695Z,97559.81
2018-09-02T22:41:43.412Z,97558.56
2018-09-02T22:44:12.176Z,97554.27
2018-09-02T22:46:40.880Z,97551.24
2018-09-02T22:49:09.541Z,97555.28
2018-09-02T22:51:38.133Z,97547.78
2018-09-02T22:54:06.832Z,97547.97
2018-09-02T22:56:35.473Z,97537.89
2018-09-02T22:59:04.072Z,97536.08
2018-09-02T23:01:32.776Z,97533.50
2018-09-02T23:04:01.381Z,97532.75
2018-09-02T23:06:29.967Z,97518.02
2018-09-02T23:08:59.029Z,97519.14
2018-09-02T23:11:27.632Z,97508.98
2018-09-02T23:13:56.216Z,97499.38
2018-09-02T23:16:25.075Z,97497.72
2018-09-02T23:18:53.651Z,97485.73
2018-09-02T23:21:22.251Z,97484.00
2018-09-02T23:23:50.924Z,97476.24
2018-09-02T23:26:19.552Z,97469.20
2018-09-02T23:28:48.203Z,97472.03
2018-09-02T23:31:17.111Z,97460.12
2018-09-02T23:33:45.800Z,97458.02
2018-09-02T23:36:14.384Z,97453.19
2018-09-02T23:38:43.155Z,97444.23
2018-09-02T23:41:11.739Z,97442.56
2018-09-02T23:43:41.119Z,97443.93
2018-09-02T23:46:09.844Z,97435.34
2018-09-02T23:48:38.688Z,97435.98
2018-09-02T23:51:07.267Z,97441.25
2018-09-02T23:53:36.184Z,97439.56
2018-09-02T23:56:05.120Z,97431.04
2018-09-02T23:58:33.835Z,97430.74
